sensor_id;sensor_type;location;lat;lon;timestamp;pressure;altitude;pressure_sealevel;temperature;humidity
53940;BME280;39850;43.324;21.916;2022-11-03T00:05:49;999.0;;;13.7;78.0
53940;BME280;39850;43.324;21.916;2022-11-03T00:10:25;999.0;;;13.7;78.0
53940;BME280;39850;43.324;21.916;2022-11-03T00:15:03;999.0;;;13.7;78.0
53940;BME280;39850;43.324;21.916;2022-11-03T00:19:40;999.0;;;13.7;78.0
53940;BME280;39850;43.324;21.916;2022-11-03T00:24:16;999.0;;;13.7;78.0
53940;BME280;39850;43.324;21.916;2022-11-03T00:29:00;999.0;;;13.7;78.0
53940;BME280;39850;43.324;21.916;2022-11-03T00:33:45;999.0;;;13.4;78.0
53940;BME280;39850;43.324;21.916;2022-11-03T00:38:24;999.0;;;13.4;78.0
53940;BME280;39850;43.324;21.916;2022-11-03T00:43:01;999.0;;;13.1;78.0
53940;BME280;39850;43.324;21.916;2022-11-03T00:47:37;999.0;;;13.1;78.0
53940;BME280;39850;43.324;21.916;2022-11-03T00:52:14;999.0;;;13.1;78.0
53940;BME280;39850;43.324;21.916;2022-11-03T01:24:43;999.0;;;11.6;81.0
53940;BME280;39850;43.324;21.916;2022-11-03T01:29:20;999.0;;;11.6;81.0
53940;BME280;39850;43.324;21.916;2022-11-03T01:33:57;999.0;;;11.6;81.0
53940;BME280;39850;43.324;21.916;2022-11-03T01:38:37;999.0;;;11.6;81.0
53940;BME280;39850;43.324;21.916;2022-11-03T01:43:17;999.0;;;11.6;81.0
53940;BME280;39850;43.324;21.916;2022-11-03T01:47:56;999.0;;;11.6;81.0
53940;BME280;39850;43.324;21.916;2022-11-03T01:52:47;999.0;;;11.8;82.0
53940;BME280;39850;43.324;21.916;2022-11-03T01:57:48;999.0;;;11.8;82.0
53940;BME280;39850;43.324;21.916;2022-11-03T02:02:31;999.0;;;11.8;82.0
53940;BME280;39850;43.324;21.916;2022-11-03T02:07:30;999.0;;;12.0;81.0
53940;BME280;39850;43.324;21.916;2022-11-03T02:12:20;999.0;;;12.0;81.0
53940;BME280;39850;43.324;21.916;2022-11-03T02:47:06;1000.0;;;11.6;82.0
53940;BME280;39850;43.324;21.916;2022-11-03T02:51:43;1000.0;;;11.6;82.0
53940;BME280;39850;43.324;21.916;2022-11-03T02:56:24;1000.0;;;11.6;82.0
53940;BME280;39850;43.324;21.916;2022-11-03T03:01:23;1000.0;;;11.6;82.0
53940;BME280;39850;43.324;21.916;2022-11-03T03:06:19;1000.0;;;11.6;82.0
53940;BME280;39850;43.324;21.916;2022-11-03T03:11:10;1000.0;;;11.6;82.0
53940;BME280;39850;43.324;21.916;2022-11-03T03:16:20;1000.0;;;11.6;82.0
53940;BME280;39850;43.324;21.916;2022-11-03T03:21:25;1000.0;;;11.6;82.0
53940;BME280;39850;43.324;21.916;2022-11-03T03:26:32;1000.0;;;11.6;83.0
53940;BME280;39850;43.324;21.916;2022-11-03T03:31:25;1000.0;;;11.6;83.0
53940;BME280;39850;43.324;21.916;2022-11-03T04:04:51;1000.0;;;11.6;85.0
53940;BME280;39850;43.324;21.916;2022-11-03T04:09:28;1000.0;;;11.6;85.0
53940;BME280;39850;43.324;21.916;2022-11-03T04:14:04;1000.0;;;11.6;85.0
53940;BME280;39850;43.324;21.916;2022-11-03T04:18:41;1000.0;;;11.6;85.0
53940;BME280;39850;43.324;21.916;2022-11-03T04:23:19;1000.0;;;11.7;85.0
53940;BME280;39850;43.324;21.916;2022-11-03T04:27:56;1000.0;;;11.7;85.0
53940;BME280;39850;43.324;21.916;2022-11-03T04:32:35;1000.0;;;11.7;85.0
53940;BME280;39850;43.324;21.916;2022-11-03T04:37:16;999.0;;;11.8;84.0
53940;BME280;39850;43.324;21.916;2022-11-03T04:41:53;999.0;;;11.8;84.0
53940;BME280;39850;43.324;21.916;2022-11-03T04:46:31;999.0;;;11.8;84.0
53940;BME280;39850;43.324;21.916;2022-11-03T04:51:23;999.0;;;11.8;84.0
53940;BME280;39850;43.324;21.916;2022-11-03T05:25:42;999.0;;;11.6;85.0
53940;BME280;39850;43.324;21.916;2022-11-03T05:30:20;999.0;;;11.6;85.0
53940;BME280;39850;43.324;21.916;2022-11-03T05:34:58;999.0;;;11.6;85.0
53940;BME280;39850;43.324;21.916;2022-11-03T05:39:45;999.0;;;11.6;85.0
53940;BME280;39850;43.324;21.916;2022-11-03T05:44:38;999.0;;;11.6;85.0
53940;BME280;39850;43.324;21.916;2022-11-03T05:49:16;999.0;;;11.6;85.0
53940;BME280;39850;43.324;21.916;2022-11-03T05:54:11;1000.0;;;11.6;85.0
53940;BME280;39850;43.324;21.916;2022-11-03T05:59:03;1000.0;;;11.6;85.0
53940;BME280;39850;43.324;21.916;2022-11-03T06:03:42;1000.0;;;11.6;85.0
53940;BME280;39850;43.324;21.916;2022-11-03T06:08:34;1000.0;;;11.6;85.0
53940;BME280;39850;43.324;21.916;2022-11-03T06:13:26;1000.0;;;11.6;85.0
53940;BME280;39850;43.324;21.916;2022-11-03T06:46:32;1000.0;;;11.8;87.0
53940;BME280;39850;43.324;21.916;2022-11-03T06:51:26;1000.0;;;11.8;87.0
53940;BME280;39850;43.324;21.916;2022-11-03T06:56:19;1000.0;;;11.8;88.0
53940;BME280;39850;43.324;21.916;2022-11-03T07:01:15;1000.0;;;11.8;88.0
53940;BME280;39850;43.324;21.916;2022-11-03T07:06:16;1000.0;;;11.8;88.0
53940;BME280;39850;43.324;21.916;2022-11-03T07:11:18;1000.0;;;11.8;88.0
53940;BME280;39850;43.324;21.916;2022-11-03T07:15:56;1000.0;;;11.8;88.0
53940;BME280;39850;43.324;21.916;2022-11-03T07:20:33;1000.0;;;11.8;88.0
53940;BME280;39850;43.324;21.916;2022-11-03T07:25:20;1000.0;;;11.8;88.0
53940;BME280;39850;43.324;21.916;2022-11-03T07:30:20;1000.0;;;11.8;88.0
53940;BME280;39850;43.324;21.916;2022-11-03T08:08:43;1000.0;;;12.7;84.0
53940;BME280;39850;43.324;21.916;2022-11-03T08:13:19;1000.0;;;12.7;84.0
53940;BME280;39850;43.324;21.916;2022-11-03T08:17:56;1000.0;;;12.7;84.0
53940;BME280;39850;43.324;21.916;2022-11-03T08:22:32;1000.0;;;12.7;84.0
53940;BME280;39850;43.324;21.916;2022-11-03T08:27:09;1000.0;;;12.7;84.0
53940;BME280;39850;43.324;21.916;2022-11-03T08:31:46;1000.0;;;12.7;84.0
53940;BME280;39850;43.324;21.916;2022-11-03T08:36:23;1000.0;;;12.7;84.0
53940;BME280;39850;43.324;21.916;2022-11-03T08:41:00;1000.0;;;12.7;84.0
53940;BME280;39850;43.324;21.916;2022-11-03T08:45:37;1000.0;;;12.7;84.0
53940;BME280;39850;43.324;21.916;2022-11-03T08:50:14;1000.0;;;12.7;84.0
53940;BME280;39850;43.324;21.916;2022-11-03T09:27:07;999.0;;;12.5;84.0
53940;BME280;39850;43.324;21.916;2022-11-03T09:31:44;999.0;;;12.5;84.0
53940;BME280;39850;43.324;21.916;2022-11-03T09:36:20;999.0;;;12.6;84.0
53940;BME280;39850;43.324;21.916;2022-11-03T09:40:58;999.0;;;12.6;84.0
53940;BME280;39850;43.324;21.916;2022-11-03T09:45:35;999.0;;;12.7;84.0
53940;BME280;39850;43.324;21.916;2022-11-03T09:50:19;999.0;;;12.7;84.0
53940;BME280;39850;43.324;21.916;2022-11-03T09:54:56;999.0;;;12.7;84.0
53940;BME280;39850;43.324;21.916;2022-11-03T09:59:36;999.0;;;12.7;84.0
53940;BME280;39850;43.324;21.916;2022-11-03T10:04:21;999.0;;;12.7;84.0
53940;BME280;39850;43.324;21.916;2022-11-03T10:09:04;999.0;;;12.7;84.0
53940;BME280;39850;43.324;21.916;2022-11-03T10:13:54;999.0;;;12.7;84.0
53940;BME280;39850;43.324;21.916;2022-11-03T10:46:39;999.0;;;12.7;82.0
53940;BME280;39850;43.324;21.916;2022-11-03T10:51:16;999.0;;;12.7;82.0
53940;BME280;39850;43.324;21.916;2022-11-03T10:55:53;998.0;;;12.7;82.0
53940;BME280;39850;43.324;21.916;2022-11-03T11:00:30;998.0;;;12.7;82.0
53940;BME280;39850;43.324;21.916;2022-11-03T11:05:21;998.0;;;12.7;82.0
53940;BME280;39850;43.324;21.916;2022-11-03T11:10:17;998.0;;;12.7;82.0
53940;BME280;39850;43.324;21.916;2022-11-03T11:15:03;998.0;;;13.0;82.0
53940;BME280;39850;43.324;21.916;2022-11-03T11:20:38;998.0;;;13.0;82.0
53940;BME280;39850;43.324;21.916;2022-11-03T11:25:19;998.0;;;13.3;82.0
53940;BME280;39850;43.324;21.916;2022-11-03T11:29:57;998.0;;;13.3;82.0
53940;BME280;39850;43.324;21.916;2022-11-03T12:05:36;997.0;;;15.3;72.0
53940;BME280;39850;43.324;21.916;2022-11-03T12:10:24;997.0;;;15.3;72.0
53940;BME280;39850;43.324;21.916;2022-11-03T12:15:01;997.0;;;14.8;73.0
53940;BME280;39850;43.324;21.916;2022-11-03T12:19:44;997.0;;;14.8;73.0
53940;BME280;39850;43.324;21.916;2022-11-03T12:24:48;997.0;;;14.8;73.0
53940;BME280;39850;43.324;21.916;2022-11-03T12:29:27;997.0;;;15.2;73.0
53940;BME280;39850;43.324;21.916;2022-11-03T12:34:04;997.0;;;15.2;73.0
53940;BME280;39850;43.324;21.916;2022-11-03T12:38:41;996.0;;;14.8;74.0
53940;BME280;39850;43.324;21.916;2022-11-03T12:43:19;996.0;;;14.8;74.0
53940;BME280;39850;43.324;21.916;2022-11-03T12:47:56;996.0;;;15.2;73.0
53940;BME280;39850;43.324;21.916;2022-11-03T12:52:33;996.0;;;15.2;73.0
53940;BME280;39850;43.324;21.916;2022-11-03T13:29:25;996.0;;;15.3;71.0
53940;BME280;39850;43.324;21.916;2022-11-03T13:34:01;996.0;;;15.3;71.0
53940;BME280;39850;43.324;21.916;2022-11-03T13:38:38;996.0;;;15.3;71.0
53940;BME280;39850;43.324;21.916;2022-11-03T13:43:14;996.0;;;15.3;71.0
53940;BME280;39850;43.324;21.916;2022-11-03T13:47:51;995.0;;;15.3;71.0
53940;BME280;39850;43.324;21.916;2022-11-03T13:52:28;995.0;;;15.3;71.0
53940;BME280;39850;43.324;21.916;2022-11-03T13:57:05;995.0;;;15.4;71.0
53940;BME280;39850;43.324;21.916;2022-11-03T14:01:42;995.0;;;15.4;71.0
53940;BME280;39850;43.324;21.916;2022-11-03T14:06:19;995.0;;;15.5;71.0
53940;BME280;39850;43.324;21.916;2022-11-03T14:10:55;995.0;;;15.5;71.0
53940;BME280;39850;43.324;21.916;2022-11-03T14:47:54;995.0;;;14.4;75.0
53940;BME280;39850;43.324;21.916;2022-11-03T14:52:31;995.0;;;14.4;75.0
53940;BME280;39850;43.324;21.916;2022-11-03T14:57:08;995.0;;;14.4;74.0
53940;BME280;39850;43.324;21.916;2022-11-03T15:01:48;995.0;;;14.4;74.0
53940;BME280;39850;43.324;21.916;2022-11-03T15:06:26;995.0;;;14.4;75.0
53940;BME280;39850;43.324;21.916;2022-11-03T15:11:07;995.0;;;14.4;75.0
53940;BME280;39850;43.324;21.916;2022-11-03T15:15:44;995.0;;;14.4;74.0
53940;BME280;39850;43.324;21.916;2022-11-03T15:20:21;995.0;;;14.4;74.0
53940;BME280;39850;43.324;21.916;2022-11-03T15:24:58;995.0;;;14.4;74.0
53940;BME280;39850;43.324;21.916;2022-11-03T15:29:35;995.0;;;14.4;75.0
53940;BME280;39850;43.324;21.916;2022-11-03T15:34:11;995.0;;;14.4;75.0
53940;BME280;39850;43.324;21.916;2022-11-03T16:06:30;995.0;;;13.8;76.0
53940;BME280;39850;43.324;21.916;2022-11-03T16:11:06;995.0;;;13.8;76.0
53940;BME280;39850;43.324;21.916;2022-11-03T16:15:43;995.0;;;13.8;76.0
53940;BME280;39850;43.324;21.916;2022-11-03T16:20:20;995.0;;;13.8;76.0
53940;BME280;39850;43.324;21.916;2022-11-03T16:24:56;995.0;;;13.8;76.0
53940;BME280;39850;43.324;21.916;2022-11-03T16:29:33;995.0;;;13.6;77.0
53940;BME280;39850;43.324;21.916;2022-11-03T16:34:10;995.0;;;13.6;77.0
53940;BME280;39850;43.324;21.916;2022-11-03T16:38:46;995.0;;;13.5;78.0
53940;BME280;39850;43.324;21.916;2022-11-03T16:43:23;995.0;;;13.5;78.0
53940;BME280;39850;43.324;21.916;2022-11-03T16:48:00;995.0;;;13.5;78.0
53940;BME280;39850;43.324;21.916;2022-11-03T16:52:37;995.0;;;13.5;78.0
53940;BME280;39850;43.324;21.916;2022-11-03T17:29:45;995.0;;;12.7;81.0
53940;BME280;39850;43.324;21.916;2022-11-03T17:34:24;995.0;;;12.7;81.0
53940;BME280;39850;43.324;21.916;2022-11-03T17:39:02;995.0;;;12.7;81.0
53940;BME280;39850;43.324;21.916;2022-11-03T17:43:39;995.0;;;12.7;81.0
53940;BME280;39850;43.324;21.916;2022-11-03T17:48:17;995.0;;;12.7;81.0
53940;BME280;39850;43.324;21.916;2022-11-03T17:52:54;995.0;;;12.7;81.0
53940;BME280;39850;43.324;21.916;2022-11-03T17:57:31;995.0;;;12.2;82.0
53940;BME280;39850;43.324;21.916;2022-11-03T18:02:20;995.0;;;12.2;82.0
53940;BME280;39850;43.324;21.916;2022-11-03T18:07:00;995.0;;;11.7;82.0
53940;BME280;39850;43.324;21.916;2022-11-03T18:11:42;995.0;;;11.7;82.0
53940;BME280;39850;43.324;21.916;2022-11-03T18:48:56;994.0;;;11.8;82.0
53940;BME280;39850;43.324;21.916;2022-11-03T18:53:32;994.0;;;11.8;82.0
53940;BME280;39850;43.324;21.916;2022-11-03T18:58:22;994.0;;;11.8;82.0
53940;BME280;39850;43.324;21.916;2022-11-03T19:02:59;994.0;;;11.8;82.0
53940;BME280;39850;43.324;21.916;2022-11-03T19:07:37;994.0;;;11.8;82.0
53940;BME280;39850;43.324;21.916;2022-11-03T19:12:15;994.0;;;11.8;82.0
53940;BME280;39850;43.324;21.916;2022-11-03T19:16:54;994.0;;;11.8;83.0
53940;BME280;39850;43.324;21.916;2022-11-03T19:21:31;994.0;;;11.8;83.0
53940;BME280;39850;43.324;21.916;2022-11-03T19:26:25;994.0;;;11.8;83.0
53940;BME280;39850;43.324;21.916;2022-11-03T19:31:33;994.0;;;11.8;83.0
53940;BME280;39850;43.324;21.916;2022-11-03T19:36:14;994.0;;;11.8;83.0
53940;BME280;39850;43.324;21.916;2022-11-03T20:09:10;994.0;;;11.0;84.0
53940;BME280;39850;43.324;21.916;2022-11-03T20:13:49;994.0;;;11.0;84.0
53940;BME280;39850;43.324;21.916;2022-11-03T20:18:25;994.0;;;10.8;84.0
53940;BME280;39850;43.324;21.916;2022-11-03T20:23:16;994.0;;;10.8;84.0
53940;BME280;39850;43.324;21.916;2022-11-03T20:27:58;994.0;;;10.7;84.0
53940;BME280;39850;43.324;21.916;2022-11-03T20:32:35;994.0;;;10.7;84.0
53940;BME280;39850;43.324;21.916;2022-11-03T20:37:19;994.0;;;10.7;84.0
53940;BME280;39850;43.324;21.916;2022-11-03T20:41:56;994.0;;;10.7;84.0
53940;BME280;39850;43.324;21.916;2022-11-03T20:46:33;994.0;;;10.7;84.0
53940;BME280;39850;43.324;21.916;2022-11-03T20:51:18;994.0;;;10.7;84.0
53940;BME280;39850;43.324;21.916;2022-11-03T20:55:57;994.0;;;10.7;84.0
53940;BME280;39850;43.324;21.916;2022-11-03T21:28:32;993.0;;;10.7;85.0
53940;BME280;39850;43.324;21.916;2022-11-03T21:33:10;993.0;;;10.7;85.0
53940;BME280;39850;43.324;21.916;2022-11-03T21:37:47;993.0;;;10.9;85.0
53940;BME280;39850;43.324;21.916;2022-11-03T21:42:24;993.0;;;10.9;85.0
53940;BME280;39850;43.324;21.916;2022-11-03T21:47:00;993.0;;;11.1;84.0
53940;BME280;39850;43.324;21.916;2022-11-03T21:51:37;993.0;;;11.1;84.0
53940;BME280;39850;43.324;21.916;2022-11-03T21:56:15;993.0;;;11.1;84.0
53940;BME280;39850;43.324;21.916;2022-11-03T22:00:52;993.0;;;11.4;84.0
53940;BME280;39850;43.324;21.916;2022-11-03T22:05:29;993.0;;;11.4;84.0
53940;BME280;39850;43.324;21.916;2022-11-03T22:10:08;993.0;;;11.8;84.0
53940;BME280;39850;43.324;21.916;2022-11-03T22:14:45;993.0;;;11.8;84.0
53940;BME280;39850;43.324;21.916;2022-11-03T22:47:20;993.0;;;11.8;84.0
53940;BME280;39850;43.324;21.916;2022-11-03T22:51:57;993.0;;;11.8;84.0
53940;BME280;39850;43.324;21.916;2022-11-03T22:56:34;993.0;;;11.8;84.0
53940;BME280;39850;43.324;21.916;2022-11-03T23:01:19;993.0;;;11.8;84.0
53940;BME280;39850;43.324;21.916;2022-11-03T23:06:04;993.0;;;11.8;84.0
53940;BME280;39850;43.324;21.916;2022-11-03T23:10:44;993.0;;;11.8;84.0
53940;BME280;39850;43.324;21.916;2022-11-03T23:15:21;993.0;;;11.8;84.0
53940;BME280;39850;43.324;21.916;2022-11-03T23:19:57;993.0;;;11.6;84.0
53940;BME280;39850;43.324;21.916;2022-11-03T23:24:34;993.0;;;11.6;84.0
53940;BME280;39850;43.324;21.916;2022-11-03T23:29:15;993.0;;;11.3;84.0
53940;BME280;39850;43.324;21.916;2022-11-03T23:33:52;993.0;;;11.3;84.0
